createdAt,value
2022-11-21T00:00:54.696Z,64.72
2022-11-21T00:03:22.336Z,64.71
2022-11-21T00:05:49.945Z,64.80
2022-11-21T00:08:19.324Z,65.02
2022-11-21T00:10:47.062Z,64.79
2022-11-21T00:13:19.385Z,64.73
2022-11-21T00:15:47.890Z,64.66
2022-11-21T00:18:15.426Z,64.89
2022-11-21T00:20:43.701Z,64.99
2022-11-21T00:23:11.392Z,64.98
2022-11-21T00:25:39.540Z,64.84
2022-11-21T00:28:06.560Z,64.92
2022-11-21T00:30:33.558Z,64.88
2022-11-21T00:33:00.672Z,64.58
2022-11-21T00:35:28.015Z,64.86
2022-11-21T00:37:55.113Z,64.84
2022-11-21T00:40:22.262Z,64.86
2022-11-21T00:42:49.287Z,64.74
2022-11-21T00:45:21.102Z,64.91
2022-11-21T00:47:49.894Z,64.63
2022-11-21T00:50:16.958Z,64.83
2022-11-21T00:52:44.030Z,64.80
2022-11-21T00:55:11.133Z,64.66
2022-11-21T00:57:38.204Z,64.87
2022-11-21T01:00:06.413Z,65.07
2022-11-21T01:02:33.529Z,65.06
2022-11-21T01:05:00.583Z,64.95
2022-11-21T01:07:27.705Z,64.69
2022-11-21T01:09:54.732Z,64.74
2022-11-21T01:12:22.008Z,64.57
2022-11-21T01:14:49.129Z,64.57
2022-11-21T01:17:16.920Z,64.64
2022-11-21T01:19:45.149Z,64.56
2022-11-21T01:22:12.168Z,64.55
2022-11-21T01:24:39.165Z,64.58
2022-11-21T01:27:06.162Z,64.70
2022-11-21T01:29:33.164Z,64.69
2022-11-21T01:32:00.184Z,64.93
2022-11-21T01:34:27.388Z,64.85
2022-11-21T01:36:54.612Z,64.85
2022-11-21T01:39:21.632Z,64.67
2022-11-21T01:41:48.680Z,64.64
2022-11-21T01:44:20.568Z,64.67
2022-11-21T01:46:49.338Z,64.84
2022-11-21T01:49:20.223Z,64.69
2022-11-21T01:52:09.872Z,64.68
2022-11-21T01:54:43.807Z,64.61
2022-11-21T01:57:14.799Z,64.42
2022-11-21T01:59:48.689Z,64.49
2022-11-21T02:02:20.878Z,64.57
2022-11-21T02:04:49.356Z,64.63
2022-11-21T02:07:20.318Z,64.61
2022-11-21T02:09:53.155Z,64.57
2022-11-21T02:12:34.181Z,64.52
2022-11-21T02:15:02.134Z,64.59
2022-11-21T02:17:30.586Z,64.66
2022-11-21T02:20:00.957Z,64.48
2022-11-21T02:23:02.387Z,64.59
2022-11-21T02:25:38.473Z,64.71
2022-11-21T02:28:12.946Z,64.70
2022-11-21T02:30:42.680Z,64.73
2022-11-21T02:33:10.752Z,64.70
2022-11-21T02:35:38.031Z,64.67
2022-11-21T02:38:22.742Z,64.76
2022-11-21T02:41:02.337Z,64.71
2022-11-21T02:43:36.614Z,64.59
2022-11-21T02:46:03.754Z,64.58
2022-11-21T02:48:30.807Z,64.53
2022-11-21T02:50:57.877Z,64.43
2022-11-21T02:53:24.927Z,64.34
2022-11-21T02:55:51.973Z,64.35
2022-11-21T02:58:19.866Z,64.37
2022-11-21T03:00:46.949Z,64.16
2022-11-21T03:03:14.703Z,64.38
2022-11-21T03:05:41.930Z,64.31
2022-11-21T03:08:09.108Z,64.17
2022-11-21T03:10:36.720Z,64.25
2022-11-21T03:13:04.074Z,64.34
2022-11-21T03:15:33.530Z,64.46
2022-11-21T03:18:03.058Z,64.32
2022-11-21T03:20:34.891Z,64.56
2022-11-21T03:23:02.689Z,64.60
2022-11-21T03:25:29.758Z,64.50
2022-11-21T03:27:56.883Z,64.55
2022-11-21T03:30:25.503Z,64.56
2022-11-21T03:32:56.128Z,64.32
2022-11-21T03:35:23.380Z,64.32
2022-11-21T03:37:50.402Z,64.22
2022-11-21T03:40:17.424Z,64.23
2022-11-21T03:42:44.676Z,64.12
2022-11-21T03:45:11.751Z,64.28
2022-11-21T03:47:38.826Z,64.36
2022-11-21T03:50:06.253Z,64.37
2022-11-21T03:52:33.637Z,64.42
2022-11-21T03:55:00.763Z,64.25
2022-11-21T03:57:27.838Z,64.14
2022-11-21T03:59:54.937Z,64.09
2022-11-21T04:02:22.139Z,64.01
2022-11-21T04:04:49.225Z,64.24
2022-11-21T04:07:16.679Z,64.24
2022-11-21T04:09:43.871Z,64.30
2022-11-21T04:12:10.868Z,64.21
2022-11-21T04:14:37.968Z,64.14
2022-11-21T04:17:05.142Z,64.43
2022-11-21T04:19:32.267Z,64.31
2022-11-21T04:21:59.318Z,64.35
2022-11-21T04:24:26.836Z,64.45
2022-11-21T04:26:55.408Z,64.45
2022-11-21T04:29:22.408Z,64.37
2022-11-21T04:31:49.454Z,64.32
2022-11-21T04:34:16.530Z,64.25
2022-11-21T04:36:43.838Z,64.12
2022-11-21T04:39:10.987Z,63.96
2022-11-21T04:41:38.059Z,64.13
2022-11-21T04:44:05.414Z,63.94
2022-11-21T04:46:32.515Z,64.07
2022-11-21T04:49:00.045Z,64.12
2022-11-21T04:51:27.068Z,64.20
2022-11-21T04:53:54.169Z,64.32
2022-11-21T04:56:21.192Z,64.32
2022-11-21T04:58:48.188Z,64.08
2022-11-21T05:01:15.298Z,64.07
2022-11-21T05:03:42.367Z,64.18
2022-11-21T05:06:09.415Z,64.12
2022-11-21T05:08:36.457Z,64.20
2022-11-21T05:11:22.197Z,64.30
2022-11-21T05:13:49.216Z,64.32
2022-11-21T05:16:16.272Z,64.29
2022-11-21T05:18:43.519Z,64.37
2022-11-21T05:21:10.569Z,64.26
2022-11-21T05:23:37.588Z,64.32
2022-11-21T05:26:04.663Z,64.25
2022-11-21T05:28:31.710Z,64.20
2022-11-21T05:30:58.732Z,64.11
2022-11-21T05:33:25.729Z,64.32
2022-11-21T05:35:52.778Z,64.13
2022-11-21T05:38:19.852Z,64.06
2022-11-21T05:40:46.956Z,64.19
2022-11-21T05:43:32.637Z,64.17
2022-11-21T05:45:59.687Z,64.25
2022-11-21T05:48:26.735Z,64.22
2022-11-21T05:50:53.702Z,64.21
2022-11-21T05:53:20.982Z,64.26
2022-11-21T05:55:47.994Z,64.27
2022-11-21T05:58:15.050Z,64.36
2022-11-21T06:00:42.051Z,64.33
2022-11-21T06:03:30.745Z,64.27
2022-11-21T06:06:06.295Z,64.13
2022-11-21T06:08:40.224Z,64.19
2022-11-21T06:11:08.957Z,64.04
2022-11-21T06:13:36.673Z,64.20
2022-11-21T06:16:07.118Z,64.13
2022-11-21T06:18:42.024Z,64.17
2022-11-21T06:21:28.451Z,64.21
2022-11-21T06:23:57.985Z,64.06
2022-11-21T06:26:27.085Z,64.21
2022-11-21T06:28:55.049Z,64.18
2022-11-21T06:31:24.275Z,64.25
2022-11-21T06:33:54.061Z,64.16
2022-11-21T06:36:21.622Z,64.10
2022-11-21T06:38:48.822Z,64.09
2022-11-21T06:41:19.761Z,64.01
2022-11-21T06:43:47.296Z,64.08
2022-11-21T06:46:15.727Z,64.06
2022-11-21T06:48:43.832Z,64.01
2022-11-21T06:51:17.759Z,64.01
2022-11-21T06:53:45.576Z,63.88
2022-11-21T06:56:12.906Z,64.13
2022-11-21T06:58:39.905Z,64.21
2022-11-21T07:01:08.871Z,64.12
2022-11-21T07:03:36.967Z,64.24
2022-11-21T07:06:04.605Z,64.39
2022-11-21T07:08:33.528Z,64.30
2022-11-21T07:13:53.281Z,64.24
2022-11-21T07:16:20.656Z,64.22
2022-11-21T07:18:47.752Z,64.25
2022-11-21T07:21:14.825Z,64.23
2022-11-21T07:23:41.957Z,64.28
2022-11-21T07:26:11.024Z,64.33
2022-11-21T07:28:38.554Z,64.19
2022-11-21T07:31:12.903Z,64.28
2022-11-21T07:33:40.775Z,64.22
2022-11-21T07:36:08.239Z,64.21
2022-11-21T07:38:35.300Z,64.19
2022-11-21T07:41:02.320Z,64.24
2022-11-21T07:43:29.375Z,64.18
2022-11-21T07:45:56.445Z,64.17
2022-11-21T07:48:24.136Z,64.21
2022-11-21T07:50:51.080Z,64.32
2022-11-21T07:53:18.075Z,64.35
2022-11-21T07:55:45.121Z,64.41
2022-11-21T07:58:13.680Z,64.45
2022-11-21T08:00:44.574Z,64.36
2022-11-21T08:03:12.881Z,64.34
2022-11-21T08:05:41.750Z,64.25
2022-11-21T08:08:10.150Z,64.28
2022-11-21T08:10:42.823Z,64.40
2022-11-21T08:13:09.950Z,64.30
2022-11-21T08:15:37.840Z,64.33
2022-11-21T08:18:11.317Z,64.39
2022-11-21T08:20:38.599Z,64.47
2022-11-21T08:23:06.260Z,64.27
2022-11-21T08:25:34.992Z,64.41
2022-11-21T08:28:03.037Z,64.39
2022-11-21T08:30:30.410Z,64.31
2022-11-21T08:33:00.644Z,64.41
2022-11-21T08:35:28.717Z,64.39
2022-11-21T08:38:00.142Z,64.51
2022-11-21T08:40:29.287Z,64.54
2022-11-21T08:42:59.741Z,64.46
2022-11-21T08:45:26.850Z,64.52
2022-11-21T08:47:54.405Z,64.60
2022-11-21T08:50:23.039Z,64.52
2022-11-21T08:52:50.161Z,64.54
2022-11-21T08:55:17.260Z,64.56
2022-11-21T08:57:44.337Z,64.70
2022-11-21T09:00:12.768Z,64.72
2022-11-21T09:02:39.890Z,64.60
2022-11-21T09:05:07.876Z,64.58
2022-11-21T09:07:35.317Z,64.55
2022-11-21T09:10:02.493Z,64.57
2022-11-21T09:12:29.567Z,64.60
2022-11-21T09:15:15.380Z,64.61
2022-11-21T09:18:01.218Z,64.57
2022-11-21T09:20:28.302Z,64.59
2022-11-21T09:22:55.365Z,64.57
2022-11-21T09:25:22.582Z,64.64
2022-11-21T09:27:49.695Z,64.64
2022-11-21T09:30:16.996Z,64.58
2022-11-21T09:32:44.134Z,64.57
2022-11-21T09:35:11.304Z,64.53
2022-11-21T09:37:38.398Z,64.59
2022-11-21T09:40:06.169Z,64.63
2022-11-21T09:42:45.191Z,64.69
2022-11-21T09:45:19.125Z,64.74
2022-11-21T09:47:49.621Z,64.75
2022-11-21T09:50:16.599Z,64.68
2022-11-21T09:52:55.863Z,64.72
2022-11-21T09:55:34.992Z,64.70
2022-11-21T09:58:16.353Z,64.72
2022-11-21T10:00:43.482Z,64.71
2022-11-21T10:03:13.914Z,64.76
2022-11-21T10:06:05.144Z,64.64
2022-11-21T10:08:43.381Z,64.58
2022-11-21T10:11:20.163Z,64.58
2022-11-21T10:14:06.126Z,64.56
2022-11-21T10:16:44.232Z,64.71
2022-11-21T10:19:34.164Z,64.73
2022-11-21T10:22:22.768Z,64.75
2022-11-21T10:25:02.032Z,64.74
2022-11-21T10:27:35.372Z,64.76
2022-11-21T10:30:06.287Z,64.67
2022-11-21T10:32:39.379Z,64.63
2022-11-21T10:35:39.886Z,64.65
2022-11-21T10:38:27.310Z,64.70
2022-11-21T10:41:09.955Z,64.61
2022-11-21T10:44:04.800Z,64.74
2022-11-21T10:46:31.826Z,64.71
2022-11-21T10:49:04.748Z,64.72
2022-11-21T10:51:52.364Z,64.78
2022-11-21T10:54:34.694Z,64.73
2022-11-21T10:57:17.871Z,64.74
2022-11-21T11:00:13.490Z,64.65
2022-11-21T11:02:43.276Z,64.60
2022-11-21T11:05:25.122Z,64.72
2022-11-21T11:08:07.683Z,64.56
2022-11-21T11:10:37.881Z,64.69
2022-11-21T11:13:46.331Z,64.73
2022-11-21T11:16:19.388Z,64.72
2022-11-21T11:18:54.526Z,64.73
2022-11-21T11:21:29.305Z,64.70
2022-11-21T11:24:10.347Z,64.71
2022-11-21T11:26:51.333Z,64.72
2022-11-21T11:29:30.863Z,64.74
2022-11-21T11:32:05.444Z,64.89
2022-11-21T11:34:35.518Z,64.91
2022-11-21T11:37:27.427Z,64.78
2022-11-21T11:40:08.093Z,64.93
2022-11-21T11:43:06.703Z,64.88
2022-11-21T11:45:55.537Z,64.86
2022-11-21T11:48:22.611Z,64.80
2022-11-21T11:50:53.884Z,64.80
2022-11-21T11:53:30.586Z,64.82
2022-11-21T11:56:05.298Z,64.94
2022-11-21T11:58:49.922Z,64.91
2022-11-21T12:01:45.085Z,64.89
2022-11-21T12:04:21.219Z,64.92
2022-11-21T12:10:15.266Z,64.94
2022-11-21T12:12:49.723Z,64.95
2022-11-21T12:15:52.746Z,64.90
2022-11-21T12:18:19.871Z,65.00
2022-11-21T12:21:12.222Z,64.97
2022-11-21T12:23:39.525Z,64.94
2022-11-21T12:26:35.015Z,65.02
2022-11-21T12:29:24.182Z,65.01
2022-11-21T12:32:17.350Z,64.93
2022-11-21T12:35:12.525Z,64.91
2022-11-21T12:37:42.620Z,64.93
2022-11-21T12:40:23.725Z,64.94
2022-11-21T12:42:50.759Z,64.98
2022-11-21T12:45:36.994Z,65.09
2022-11-21T12:48:25.932Z,65.13
2022-11-21T12:51:41.187Z,65.17
2022-11-21T12:54:33.752Z,65.08
2022-11-21T12:57:17.268Z,65.12
2022-11-21T12:59:49.571Z,65.09
2022-11-21T13:02:34.863Z,65.14
2022-11-21T13:05:04.549Z,65.13
2022-11-21T13:07:32.867Z,65.17
2022-11-21T13:10:03.190Z,65.10
2022-11-21T13:12:37.084Z,65.20
2022-11-21T13:15:36.911Z,65.10
2022-11-21T13:18:25.708Z,65.06
2022-11-21T13:20:52.788Z,65.08
2022-11-21T13:23:39.725Z,65.01
2022-11-21T13:26:25.436Z,65.14
2022-11-21T13:29:08.561Z,65.15
2022-11-21T13:31:36.402Z,65.26
2022-11-21T13:34:05.550Z,65.24
2022-11-21T13:36:32.549Z,65.29
2022-11-21T13:39:00.154Z,65.28
2022-11-21T13:41:55.318Z,65.23
2022-11-21T13:44:31.830Z,65.24
2022-11-21T13:47:02.691Z,65.26
2022-11-21T13:50:07.907Z,65.23
2022-11-21T13:53:21.912Z,65.22
2022-11-21T13:56:24.778Z,65.25
2022-11-21T13:59:29.291Z,65.25
2022-11-21T14:02:06.542Z,65.31
2022-11-21T14:04:58.547Z,65.29
2022-11-21T14:07:38.788Z,65.31
2022-11-21T14:10:25.338Z,65.28
2022-11-21T14:12:55.407Z,65.29
2022-11-21T14:15:58.192Z,65.31
2022-11-21T14:18:26.574Z,65.31
2022-11-21T14:21:01.154Z,65.41
2022-11-21T14:23:32.699Z,65.33
2022-11-21T14:26:11.242Z,65.37
2022-11-21T14:28:38.622Z,65.30
2022-11-21T14:31:08.162Z,65.23
2022-11-21T14:33:37.763Z,65.19
2022-11-21T14:36:25.009Z,65.23
2022-11-21T14:39:20.818Z,65.24
2022-11-21T14:41:43.143Z,65.34
2022-11-21T14:44:10.168Z,65.36
2022-11-21T14:46:42.591Z,65.42
2022-11-21T14:49:12.788Z,65.32
2022-11-21T14:51:41.449Z,65.28
2022-11-21T14:54:22.423Z,65.45
2022-11-21T14:56:58.738Z,65.40
2022-11-21T14:59:39.534Z,65.37
2022-11-21T15:02:24.681Z,65.38
2022-11-21T15:04:55.441Z,65.42
2022-11-21T15:07:31.769Z,65.36
2022-11-21T15:10:27.325Z,65.33
2022-11-21T15:12:56.498Z,65.30
2022-11-21T15:15:26.644Z,65.31
2022-11-21T15:18:25.924Z,65.35
2022-11-21T15:20:50.205Z,65.32
2022-11-21T15:23:28.723Z,65.41
2022-11-21T15:26:00.694Z,65.42
2022-11-21T15:28:30.524Z,65.41
2022-11-21T15:31:17.310Z,65.41
2022-11-21T15:34:47.976Z,65.44
2022-11-21T15:37:20.298Z,65.51
2022-11-21T15:39:50.365Z,65.44
2022-11-21T15:42:33.336Z,65.50
2022-11-21T15:45:20.082Z,65.55
2022-11-21T15:47:48.735Z,65.52
2022-11-21T15:50:16.782Z,65.43
2022-11-21T15:52:48.306Z,65.44
2022-11-21T15:55:21.937Z,65.42
2022-11-21T15:57:48.956Z,65.44
2022-11-21T16:00:17.468Z,65.47
2022-11-21T16:02:44.550Z,65.44
2022-11-21T16:05:14.059Z,65.43
2022-11-21T16:07:42.117Z,65.58
2022-11-21T16:10:17.208Z,65.53
2022-11-21T16:12:48.672Z,65.56
2022-11-21T16:15:15.731Z,65.61
2022-11-21T16:17:45.131Z,65.59
2022-11-21T16:20:12.559Z,65.67
2022-11-21T16:22:45.734Z,65.61
2022-11-21T16:25:14.901Z,65.63
2022-11-21T16:27:42.059Z,65.69
2022-11-21T16:30:09.548Z,65.64
2022-11-21T16:32:36.558Z,65.67
2022-11-21T16:35:04.222Z,65.52
2022-11-21T16:37:32.114Z,65.57
2022-11-21T16:39:59.163Z,65.62
2022-11-21T16:42:26.210Z,65.58
2022-11-21T16:44:53.210Z,65.70
2022-11-21T16:47:20.331Z,65.58
2022-11-21T16:49:48.656Z,65.63
2022-11-21T16:52:18.288Z,65.72
2022-11-21T16:54:45.423Z,65.68
2022-11-21T16:57:12.493Z,65.61
2022-11-21T16:59:39.567Z,65.66
2022-11-21T17:02:07.586Z,65.64
2022-11-21T17:04:36.536Z,65.74
2022-11-21T17:07:03.810Z,65.81
2022-11-21T17:09:31.571Z,65.72
2022-11-21T17:11:58.952Z,65.57
2022-11-21T17:14:26.673Z,65.70
2022-11-21T17:16:54.613Z,65.67
2022-11-21T17:19:22.429Z,65.67
2022-11-21T17:21:49.474Z,65.77
2022-11-21T17:24:16.677Z,65.69
2022-11-21T17:26:43.800Z,65.70
2022-11-21T17:29:10.801Z,65.81
2022-11-21T17:31:37.821Z,65.76
2022-11-21T17:34:04.921Z,65.89
2022-11-21T17:36:34.641Z,65.85
2022-11-21T17:39:02.014Z,65.84
2022-11-21T17:41:29.062Z,65.83
2022-11-21T17:43:58.209Z,65.81
2022-11-21T17:46:26.229Z,65.87
2022-11-21T17:48:57.512Z,65.81
2022-11-21T17:51:29.799Z,65.84
2022-11-21T17:53:57.311Z,65.83
2022-11-21T17:56:26.939Z,65.80
2022-11-21T17:58:54.223Z,65.84
2022-11-21T18:01:22.218Z,65.81
2022-11-21T18:03:55.923Z,65.83
2022-11-21T18:06:23.503Z,65.98
2022-11-21T18:08:50.631Z,65.92
2022-11-21T18:11:21.159Z,65.96
2022-11-21T18:13:49.154Z,66.02
2022-11-21T18:16:20.761Z,66.03
2022-11-21T18:18:49.791Z,66.04
2022-11-21T18:21:22.816Z,65.97
2022-11-21T18:23:51.940Z,65.97
2022-11-21T18:26:26.907Z,66.06
2022-11-21T18:31:46.941Z,65.99
2022-11-21T18:34:14.111Z,65.94
2022-11-21T18:36:41.432Z,65.94
2022-11-21T18:39:14.160Z,65.90
2022-11-21T18:41:42.058Z,66.02
2022-11-21T18:44:10.156Z,66.04
2022-11-21T18:46:38.731Z,66.09
2022-11-21T18:49:07.755Z,66.08
2022-11-21T18:51:36.206Z,66.08
2022-11-21T18:54:08.560Z,66.08
2022-11-21T18:56:37.993Z,66.16
2022-11-21T18:59:08.374Z,66.13
2022-11-21T19:01:37.587Z,66.13
2022-11-21T19:04:05.181Z,66.23
2022-11-21T19:06:32.534Z,66.14
2022-11-21T19:08:59.632Z,66.18
2022-11-21T19:11:28.719Z,66.16
2022-11-21T19:13:56.881Z,66.13
2022-11-21T19:16:26.385Z,66.07
2022-11-21T19:19:26.402Z,66.13
2022-11-21T19:21:42.835Z,66.09
2022-11-21T19:24:13.531Z,66.07
2022-11-21T19:26:41.076Z,66.24
2022-11-21T19:29:08.532Z,66.21
2022-11-21T19:31:40.674Z,66.21
2022-11-21T19:34:12.301Z,66.21
2022-11-21T19:36:39.693Z,66.30
2022-11-21T19:39:06.887Z,66.23
2022-11-21T19:41:33.960Z,66.28
2022-11-21T19:44:02.037Z,66.31
2022-11-21T19:46:34.021Z,66.26
2022-11-21T19:49:01.691Z,66.30
2022-11-21T19:51:39.182Z,66.23
2022-11-21T19:54:07.438Z,66.14
2022-11-21T19:56:34.995Z,66.23
2022-11-21T19:59:02.242Z,66.25
2022-11-21T20:01:32.352Z,66.21
2022-11-21T20:04:02.357Z,66.31
2022-11-21T20:06:31.165Z,66.26
2022-11-21T20:09:02.798Z,66.33
2022-11-21T20:11:31.128Z,66.30
2022-11-21T20:13:58.839Z,66.39
2022-11-21T20:16:29.681Z,66.36
2022-11-21T20:19:00.032Z,66.34
2022-11-21T20:21:27.791Z,66.42
2022-11-21T20:23:54.894Z,66.51
2022-11-21T20:26:23.449Z,66.41
2022-11-21T20:28:50.784Z,66.28
2022-11-21T20:31:20.772Z,66.28
2022-11-21T20:33:51.149Z,66.29
2022-11-21T20:36:23.781Z,66.27
2022-11-21T20:38:51.158Z,66.34
2022-11-21T20:41:19.415Z,66.42
2022-11-21T20:46:35.241Z,66.45
2022-11-21T20:49:02.414Z,66.43
2022-11-21T20:54:16.660Z,66.52
2022-11-21T20:56:44.585Z,66.54
2022-11-21T20:59:12.113Z,66.50
2022-11-21T21:01:39.312Z,66.49
2022-11-21T21:04:06.776Z,66.53
2022-11-21T21:06:33.871Z,66.53
2022-11-21T21:09:00.818Z,66.45
2022-11-21T21:11:50.245Z,66.43
2022-11-21T21:14:15.035Z,66.29
2022-11-21T21:16:43.645Z,66.43
2022-11-21T21:19:10.722Z,66.48
2022-11-21T21:21:37.847Z,66.57
2022-11-21T21:24:07.042Z,66.57
2022-11-21T21:26:41.720Z,66.51
2022-11-21T21:29:15.679Z,66.62
2022-11-21T21:31:47.151Z,66.57
2022-11-21T21:34:17.328Z,66.64
2022-11-21T21:36:44.325Z,66.62
2022-11-21T21:39:11.381Z,66.67
2022-11-21T21:41:44.670Z,66.56
2022-11-21T21:44:12.625Z,66.56
2022-11-21T21:46:39.739Z,66.69
2022-11-21T21:49:06.830Z,66.63
2022-11-21T21:51:33.845Z,66.52
2022-11-21T21:54:00.808Z,66.59
2022-11-21T21:56:29.237Z,66.55
2022-11-21T21:58:58.766Z,66.64
2022-11-21T22:01:30.651Z,66.72
2022-11-21T22:04:02.775Z,66.68
2022-11-21T22:06:30.638Z,66.71
2022-11-21T22:08:57.738Z,66.66
2022-11-21T22:11:27.194Z,66.71
2022-11-21T22:13:57.160Z,66.73
2022-11-21T22:16:24.950Z,66.78
2022-11-21T22:18:52.482Z,66.82
2022-11-21T22:21:26.838Z,66.73
2022-11-21T22:24:25.003Z,66.68
2022-11-21T22:26:43.194Z,66.71
2022-11-21T22:29:10.398Z,66.64
2022-11-21T22:31:37.651Z,66.71
2022-11-21T22:34:05.243Z,66.77
2022-11-21T22:36:32.236Z,66.63
2022-11-21T22:38:59.505Z,66.69
2022-11-21T22:41:27.414Z,66.75
2022-11-21T22:43:57.349Z,66.91
2022-11-21T22:46:27.247Z,66.80
2022-11-21T22:48:54.543Z,66.77
2022-11-21T22:51:24.506Z,66.92
2022-11-21T22:53:52.128Z,66.77
2022-11-21T22:56:21.827Z,66.84
2022-11-21T22:58:49.828Z,66.80
2022-11-21T23:01:19.663Z,66.84
2022-11-21T23:03:47.533Z,66.72
2022-11-21T23:06:23.915Z,66.83
2022-11-21T23:08:55.756Z,66.64
2022-11-21T23:11:28.076Z,66.66
2022-11-21T23:13:56.418Z,66.75
2022-11-21T23:16:24.941Z,66.90
2022-11-21T23:18:53.191Z,66.97
2022-11-21T23:21:21.134Z,67.01
2022-11-21T23:23:48.567Z,66.95
2022-11-21T23:26:15.808Z,66.95
2022-11-21T23:28:42.877Z,67.01
2022-11-21T23:31:10.709Z,67.02
2022-11-21T23:33:37.965Z,67.00
2022-11-21T23:36:05.656Z,66.93
2022-11-21T23:38:32.764Z,66.92
2022-11-21T23:41:00.441Z,66.83
2022-11-21T23:43:27.513Z,66.87
2022-11-21T23:45:55.026Z,66.90
2022-11-21T23:48:24.315Z,66.88
2022-11-21T23:50:52.062Z,66.98
2022-11-21T23:53:20.193Z,66.91
2022-11-21T23:55:48.529Z,66.92
2022-11-21T23:58:15.791Z,67.00
